Кавказ

Регион ЕС ОрВД Кавказ

Регион Единой Системы Организации Воздушного Движения (регион ЕС ОрВД) Кавказ является структурным подразделением VATRUS.

В зону ответственности центра в сети VATSIM входит воздушное пространство над территориями Ростовской, Волгоградской, Астраханской областями; республиками Калмыкия, Дагестан, Чечня, Ингушетия, Северная Осетия - Алания, Карачаево-Черкесская, Адыгея, Крым; Краснодарским и Ставропольским краями, а так же Грузией, Азербайджаном и Арменией.

Контакты для связи: 

Куратор региона – Бадалов Григорий (1115140) – acc_head@urrv.me

Инструкторский состав:

Полостяной Валерий (1111228) - ins02@urrv.me

Организация мероприятий:

event@urrv.me

Секторизация РЦ Региона Кавказ

Лого Кавказ
Руководство

Grigori Badalov

Куратор
Контакты

FSS региона
Обозначение
RU-SC_CTR
Позывной
Кавказ-Радар
Частота
136.000
Примечание
Top-down
Инструкторы региона
Daniel Ryabkov * (Controller)
Grigori Badalov (Instructor)
Oleg Kabachenko * (Senior Student)
Valeriy Polostyanoy (Instructor)
Включает в себя

РПИ Баку
РПИ Ереван
РПИ Ростов-на-Дону
РПИ Тбилиси*

Диспетчеры региона

Диспетчер Рейтинг Допуски *
Wesley Wong Controller UBBA_CTR
Alexei Gladilin Controller URRV_CTR
Anatoly Zhilkin Controller UBBA_CTR , UDDD_CTR , UGGG_CTR , URRV_CTR
Artem Smychkov Instructor URRV_CTR
Daniel Ryabkov Controller URRV_CTR
Denis Zhuchkov Instructor URRV_CTR
Grigori Badalov Instructor UBBA_CTR , UDDD_CTR , UGGG_CTR , URRV_CTR
Ivan Chernov Senior Controller UBBA_CTR , UDDD_CTR , UGGG_CTR , URRV_CTR
Kirill Ivanov Controller URRV_CTR , SIP_APP
Valeriy Polostyanoy Instructor UBBA_CTR , UDDD_CTR , UGGG_CTR , URRV_CTR
Alex Lupii Student 2 URSS_TWR, URSS_GND
Alexey Ginko Student 2 URSS_GND, URSS_TWR!!!*
Anton Fadeev Student URSS_GND
Dmitrii Khrupov Student 2 URSS_R_APP*, URMM_TWR, URWW_GND
Dmitry Sazonov Senior Student URSS_APP
Emanuel Teymoorian Senior Student URSS_APP*, URRP_APP 
Gregory Adamov Student 2 URSS_TWR
Ivan Pivovarov Student 2 URSS_R_APP*
Maksim Kholodilov Student URFF_TWR!!!*
Maxim Baglikov Student 2 URSS_TWR!!!, URSS_R_APP*
Nikolay Kutorkin Student URSS_TWR!!!*, URSS_GND
Oleg Kabachenko Senior Student URSS_APP
Radomir Sigov Student URSS_GND
Sergey Vologzhin Unknown URSS_GND

Аэропорты региона

ICAO Город Название Погода
UBBB Баку Баку UBBB 250700Z 20014KT CAVOK 23/08 Q1018 NOSIG
UDYZ Ереван Звартноц UDYZ 250700Z 15004KT 120V200 9999 NSC 22/03 Q1019 NOSIG
URFF Симферополь Симферополь
URSS Сочи Сочи URSS 250730Z 03003MPS 9999 NSC 28/11 Q1009 R02/010070 R06/////// NOSIG RMK R06/08004G07MPS QFE755
UGTB Тбилиси Тбилиси UGTB 250730Z VRB04KT CAVOK 22/10 Q1019 NOSIG
URRY
URKA Анапа Анапа URKA 250730Z 16012G17MPS CAVOK 26/10 Q1006 R22/010070 TEMPO 17015G22MPS RMK QFE750/1000
URWA Астрахань Астрахань URWA 250730Z 11005MPS 080V170 CAVOK 24/08 Q1019 R09/010070 NOSIG RMK QFE766/1022
UGSB Батуми Батуми UGSB 250730Z 11019KT 9999 FEW035 29/08 Q1008 NOSIG
URMO Владикавказ Беслан URMO 250730Z VRB01MPS 9999 NSC 24/11 Q1015 R09/010070 NOSIG RMK QFE718/0957
URWW Волгоград Волгоград URWW 250730Z 14009MPS CAVOK 20/07 Q1018 R05/010070 NOSIG
UBBQ Габала Габала UBBQ 250700Z 31003KT 9999 NSC 22/11 Q1018 NOSIG
URKG Геленджик Геленджик
URMG Грозный Грозный URMG 250730Z 11003MPS 070V150 CAVOK 23/12 Q1015 R08/090070 NOSIG RMK QFE747/0996
UDSG Гюмри Ширак UDSG 250700Z VRB02KT 9999 NSC 17/03 Q1022 NOSIG
UBBG Гянджа Гянджа UBBG 250700Z 33006KT 290V050 9999 FEW100 22/10 Q1018 NOSIG
UDYE Ереван Эребуни
URKK Краснодар Пашковский URKK 250730Z 14004MPS 9999 FEW///CB 22/14 Q1008 R05R/CLRD70 NOSIG RMK QFE753
UGKO Кутаиси Кутаиси UGKO 250730Z 08023G37KT CAVOK 26/10 Q1009 NOSIG
URML Махачкала Уйташ URML 250730Z 12003MPS 090V150 9999 NSC 19/10 Q1017 R14/01//70 NOSIG RMK QFE763/1017
URMM Минеральные Воды Минеральные Воды URMM 250730Z 10007MPS 9999 NSC 24/12 Q1014 R11/090070 NOSIG RMK QFE732/0976
URMS Назрань Магас
URMN Нальчик Нальчик URMN 250730Z 07002MPS 9999 NSC 22/11 Q1014 R24/010070 NOSIG RMK QFE724
UBBN Нахичевань Нахичевань UBBN 250700Z 19004KT 9999 NSC 21/06 Q1018 NOSIG RMK QFE688
URRP Ростов-на-Дону Платов URRP 250730Z 12010MPS CAVOK 23/11 Q1009 R05/CLRD70 NOSIG RMK QFE752/1003
URRR Ростов-на-Дону Ростов-на-Дону
URMT Ставрополь Ставрополь URMT 250730Z 14008MPS CAVOK 24/08 Q1013 R07/010070 NOSIG RMK QFE720
URWI Элиста Элиста URWI 250730Z 15009MPS CAVOK 24/08 Q1016 R09/010065 NOSIG
UGAM Амбролаури Амбролаури UGAM 250730Z 28008KT CAVOK 19/09 Q1015
UBBL Ленкорань Ленкорань UBBL 250700Z 13006KT 9999 SCT070 20/13 Q1019 NOSIG
UGMS Местия Местия UGMS 250730Z 04001KT 7000 OVC090 20/01 Q1021
UGSA Натахтари Натахтари
UGGT Телави Телави